createdAt,value
2023-02-14T00:01:20.649Z,86.38
2023-02-14T00:03:49.557Z,86.54
2023-02-14T00:06:17.161Z,86.61
2023-02-14T00:08:45.026Z,86.30
2023-02-14T00:11:13.329Z,86.63
2023-02-14T00:14:01.984Z,87.04
2023-02-14T00:16:29.383Z,86.81
2023-02-14T00:19:06.014Z,86.72
2023-02-14T00:21:38.908Z,86.70
2023-02-14T00:24:12.125Z,87.26
2023-02-14T00:26:39.348Z,87.23
2023-02-14T00:29:10.682Z,86.69
2023-02-14T00:31:38.873Z,86.33
2023-02-14T00:34:07.238Z,86.52
2023-02-14T00:36:34.462Z,86.68
2023-02-14T00:39:07.041Z,86.69
2023-02-14T00:41:34.624Z,86.73
2023-02-14T00:44:02.505Z,86.73
2023-02-14T00:46:29.977Z,86.86
2023-02-14T00:48:57.533Z,87.37
2023-02-14T00:51:24.916Z,87.43
2023-02-14T00:53:52.672Z,87.21
2023-02-14T00:56:20.743Z,87.43
2023-02-14T00:58:48.401Z,87.36
2023-02-14T01:01:18.760Z,87.76
2023-02-14T01:03:46.410Z,87.61
2023-02-14T01:06:13.354Z,87.96
2023-02-14T01:08:40.668Z,88.09
2023-02-14T01:11:10.295Z,88.41
2023-02-14T01:13:37.463Z,88.32
2023-02-14T01:16:10.540Z,88.97
2023-02-14T01:18:37.529Z,88.18
2023-02-14T01:21:20.389Z,88.84
2023-02-14T01:23:51.078Z,89.16
2023-02-14T01:26:20.443Z,89.68
2023-02-14T01:28:48.036Z,89.60
2023-02-14T01:31:18.957Z,90.08
2023-02-14T01:33:47.640Z,89.50
2023-02-14T01:36:32.855Z,89.87
2023-02-14T01:39:02.724Z,89.90
2023-02-14T01:41:33.497Z,90.21
2023-02-14T01:44:06.577Z,90.30
2023-02-14T01:46:36.268Z,90.97
2023-02-14T01:49:10.778Z,91.10
2023-02-14T01:51:42.873Z,90.97
2023-02-14T01:54:11.459Z,91.35
2023-02-14T01:56:43.668Z,90.58
2023-02-14T01:59:17.380Z,91.29
2023-02-14T02:01:45.986Z,91.73
2023-02-14T02:04:18.465Z,91.69
2023-02-14T02:06:53.585Z,92.01
2023-02-14T02:09:43.319Z,91.50
2023-02-14T02:12:10.720Z,92.22
2023-02-14T02:14:38.032Z,92.42
2023-02-14T02:17:23.522Z,92.21
2023-02-14T02:20:24.531Z,92.09
2023-02-14T02:23:29.470Z,91.98
2023-02-14T02:26:24.027Z,92.16
2023-02-14T02:29:20.581Z,92.63
2023-02-14T02:32:02.419Z,93.06
2023-02-14T02:34:32.575Z,92.73
2023-02-14T02:37:03.833Z,92.64
2023-02-14T02:39:58.823Z,92.83
2023-02-14T02:42:44.938Z,92.72
2023-02-14T02:45:28.783Z,92.95
2023-02-14T02:48:16.640Z,93.36
2023-02-14T02:51:08.108Z,93.48
2023-02-14T02:53:40.968Z,93.26
2023-02-14T02:56:39.991Z,93.12
2023-02-14T02:59:18.476Z,93.01
2023-02-14T03:02:22.637Z,93.52
2023-02-14T03:04:55.822Z,93.75
2023-02-14T03:07:35.034Z,93.89
2023-02-14T03:10:16.384Z,93.99
2023-02-14T03:13:12.032Z,94.02
2023-02-14T03:15:43.544Z,93.35
2023-02-14T03:18:48.298Z,93.87
2023-02-14T03:21:29.206Z,93.66
2023-02-14T03:24:19.655Z,94.21
2023-02-14T03:26:57.926Z,94.42
2023-02-14T03:29:42.993Z,94.49
2023-02-14T03:32:38.632Z,94.08
2023-02-14T03:35:20.824Z,94.51
2023-02-14T03:38:29.440Z,93.68
2023-02-14T03:41:23.924Z,94.26
2023-02-14T03:43:59.043Z,94.14
2023-02-14T03:46:31.182Z,94.25
2023-02-14T03:49:01.861Z,94.46
2023-02-14T03:51:34.403Z,93.84
2023-02-14T03:54:04.954Z,93.81
2023-02-14T03:56:40.910Z,94.52
2023-02-14T03:59:16.665Z,94.49
2023-02-14T04:01:51.915Z,95.00
2023-02-14T04:04:22.565Z,94.57
2023-02-14T04:06:50.143Z,94.40
2023-02-14T04:09:17.062Z,95.09
2023-02-14T04:11:46.363Z,94.89
2023-02-14T04:14:13.558Z,95.14
2023-02-14T04:16:59.582Z,95.94
2023-02-14T04:19:26.803Z,95.72
2023-02-14T04:21:54.077Z,95.43
2023-02-14T04:24:21.092Z,95.09
2023-02-14T04:26:54.308Z,95.53
2023-02-14T04:29:21.504Z,95.15
2023-02-14T04:31:49.145Z,95.10
2023-02-14T04:34:16.115Z,95.69
2023-02-14T04:36:43.293Z,95.97
2023-02-14T04:39:10.358Z,95.88
2023-02-14T04:41:37.575Z,95.64
2023-02-14T04:44:04.562Z,96.46
2023-02-14T04:46:31.843Z,96.53
2023-02-14T04:48:59.349Z,96.07
2023-02-14T04:51:27.632Z,96.51
2023-02-14T04:53:54.682Z,96.54
2023-02-14T04:56:21.950Z,96.29
2023-02-14T04:58:48.882Z,96.54
2023-02-14T05:01:16.188Z,96.07
2023-02-14T05:03:43.083Z,96.15
2023-02-14T05:06:10.413Z,96.57
2023-02-14T05:08:37.430Z,96.34
2023-02-14T05:11:05.160Z,95.92
2023-02-14T05:13:32.350Z,96.56
2023-02-14T05:15:59.602Z,96.54
2023-02-14T05:18:27.294Z,96.76
2023-02-14T05:20:54.804Z,96.83
2023-02-14T05:23:22.339Z,96.89
2023-02-14T05:25:51.134Z,96.93
2023-02-14T05:28:19.620Z,96.24
2023-02-14T05:30:47.306Z,96.71
2023-02-14T05:33:14.333Z,96.90
2023-02-14T05:35:41.601Z,96.86
2023-02-14T05:38:08.587Z,96.93
2023-02-14T05:40:35.858Z,97.16
2023-02-14T05:43:02.846Z,96.64
2023-02-14T05:45:30.219Z,96.02
2023-02-14T05:47:57.297Z,96.85
2023-02-14T05:50:24.587Z,96.90
2023-02-14T05:52:54.360Z,96.96
2023-02-14T05:55:22.051Z,96.37
2023-02-14T05:57:49.046Z,96.76
2023-02-14T06:00:16.709Z,96.94
2023-02-14T06:02:43.913Z,97.27
2023-02-14T06:05:11.628Z,97.27
2023-02-14T06:07:38.878Z,97.44
2023-02-14T06:10:09.884Z,96.68
2023-02-14T06:12:36.887Z,97.00
2023-02-14T06:15:04.562Z,97.26
2023-02-14T06:17:31.479Z,97.02
2023-02-14T06:19:58.908Z,97.03
2023-02-14T06:22:26.084Z,97.03
2023-02-14T06:24:53.422Z,97.49
2023-02-14T06:27:20.404Z,97.50
2023-02-14T06:29:47.751Z,97.52
2023-02-14T06:32:14.971Z,96.94
2023-02-14T06:34:42.778Z,96.53
2023-02-14T06:37:10.058Z,96.75
2023-02-14T06:39:37.429Z,97.08
2023-02-14T06:42:04.443Z,97.00
2023-02-14T06:44:31.783Z,97.21
2023-02-14T06:46:58.798Z,97.44
2023-02-14T06:49:26.228Z,97.72
2023-02-14T06:51:53.212Z,97.76
2023-02-14T06:54:20.374Z,97.68
2023-02-14T06:56:47.339Z,97.70
2023-02-14T06:59:14.623Z,97.90
2023-02-14T07:01:41.629Z,97.79
2023-02-14T07:04:09.378Z,97.51
2023-02-14T07:06:37.578Z,96.91
2023-02-14T07:09:05.749Z,96.51
2023-02-14T07:11:32.894Z,97.14
2023-02-14T07:14:00.104Z,96.66
2023-02-14T07:16:27.035Z,96.56
2023-02-14T07:18:54.297Z,96.67
2023-02-14T07:21:21.277Z,97.18
2023-02-14T07:23:50.116Z,96.86
2023-02-14T07:26:18.333Z,96.81
2023-02-14T07:28:48.820Z,96.48
2023-02-14T07:31:17.107Z,96.55
2023-02-14T07:33:44.444Z,96.54
2023-02-14T07:36:11.479Z,96.85
2023-02-14T07:38:38.812Z,96.42
2023-02-14T07:41:05.812Z,96.95
2023-02-14T07:43:34.498Z,97.58
2023-02-14T07:46:02.857Z,97.46
2023-02-14T07:48:32.504Z,97.23
2023-02-14T07:51:01.426Z,96.72
2023-02-14T07:53:29.100Z,97.44
2023-02-14T07:55:57.034Z,96.72
2023-02-14T07:58:24.445Z,96.93
2023-02-14T08:00:51.551Z,96.41
2023-02-14T08:03:18.933Z,96.27
2023-02-14T08:05:57.192Z,96.42
2023-02-14T08:08:26.894Z,96.38
2023-02-14T08:10:53.885Z,96.91
2023-02-14T08:13:21.724Z,96.59
2023-02-14T08:16:07.586Z,95.92
2023-02-14T08:18:38.575Z,96.06
2023-02-14T08:21:08.578Z,95.90
2023-02-14T08:23:36.488Z,95.69
2023-02-14T08:26:03.955Z,95.85
2023-02-14T08:28:33.172Z,96.04
2023-02-14T08:31:01.624Z,95.61
2023-02-14T08:33:29.266Z,95.45
2023-02-14T08:35:56.431Z,95.28
2023-02-14T08:38:24.627Z,95.72
2023-02-14T08:40:51.871Z,95.37
2023-02-14T08:43:19.265Z,95.20
2023-02-14T08:45:48.491Z,94.98
2023-02-14T08:48:15.802Z,95.69
2023-02-14T08:50:42.972Z,94.67
2023-02-14T08:53:12.659Z,94.81
2023-02-14T08:55:40.601Z,94.14
2023-02-14T08:58:42.037Z,94.63
2023-02-14T09:01:15.158Z,94.38
2023-02-14T09:03:43.330Z,94.69
2023-02-14T09:06:14.644Z,94.63
2023-02-14T09:08:42.352Z,94.77
2023-02-14T09:11:19.646Z,94.82
2023-02-14T09:13:48.284Z,94.41
2023-02-14T09:16:17.637Z,93.42
2023-02-14T09:18:46.221Z,93.96
2023-02-14T09:21:17.595Z,92.83
2023-02-14T09:28:05.504Z,92.77
2023-02-14T09:38:46.630Z,92.42
2023-02-14T09:42:53.878Z,92.31
2023-02-14T09:45:27.310Z,91.22
2023-02-14T09:48:01.057Z,89.68
2023-02-14T09:50:47.483Z,89.40
2023-02-14T09:53:27.452Z,90.37
2023-02-14T09:56:20.703Z,91.13
2023-02-14T09:58:54.562Z,91.59
2023-02-14T10:01:34.480Z,91.19
2023-02-14T10:04:29.666Z,91.35
2023-02-14T10:07:24.849Z,91.24
2023-02-14T10:10:22.761Z,91.36
2023-02-14T10:12:56.439Z,91.50
2023-02-14T10:15:38.008Z,91.36
2023-02-14T10:18:15.106Z,90.94
2023-02-14T10:20:47.315Z,91.57
2023-02-14T10:23:21.264Z,91.40
2023-02-14T10:26:04.447Z,91.07
2023-02-14T10:28:35.400Z,91.02
2023-02-14T10:31:12.917Z,90.61
2023-02-14T10:33:45.643Z,91.02
2023-02-14T10:36:27.553Z,91.27
2023-02-14T10:39:09.165Z,90.42
2023-02-14T10:42:03.763Z,90.37
2023-02-14T10:44:50.474Z,89.84
2023-02-14T10:47:33.266Z,90.32
2023-02-14T10:50:44.719Z,89.57
2023-02-14T10:53:13.111Z,89.47
2023-02-14T10:55:56.024Z,89.38
2023-02-14T10:58:27.967Z,88.86
2023-02-14T11:01:15.841Z,88.97
2023-02-14T11:04:03.894Z,88.93
2023-02-14T11:06:31.899Z,89.08
2023-02-14T11:08:59.195Z,89.05
2023-02-14T11:11:43.662Z,89.40
2023-02-14T11:14:27.590Z,87.85
2023-02-14T11:16:56.914Z,88.50
2023-02-14T11:19:26.120Z,88.31
2023-02-14T11:21:56.669Z,88.33
2023-02-14T11:24:33.733Z,88.39
2023-02-14T11:27:14.840Z,87.87
2023-02-14T11:29:42.244Z,87.94
2023-02-14T11:32:16.456Z,88.84
2023-02-14T11:34:54.937Z,88.87
2023-02-14T11:37:26.771Z,87.98
2023-02-14T11:39:57.593Z,87.57
2023-02-14T11:42:37.586Z,88.45
2023-02-14T11:45:06.918Z,88.35
2023-02-14T11:47:41.711Z,87.45
2023-02-14T11:50:24.891Z,87.50
2023-02-14T11:52:57.290Z,87.84
2023-02-14T11:55:28.423Z,86.62
2023-02-14T11:57:57.988Z,86.18
2023-02-14T12:00:27.421Z,86.42
2023-02-14T12:02:56.455Z,86.50
2023-02-14T12:05:49.460Z,85.98
2023-02-14T12:08:25.264Z,86.45
2023-02-14T12:11:18.203Z,87.14
2023-02-14T12:14:21.383Z,86.98
2023-02-14T12:17:14.870Z,85.28
2023-02-14T12:20:14.457Z,85.89
2023-02-14T12:22:50.392Z,86.71
2023-02-14T12:25:22.887Z,86.47
2023-02-14T12:28:07.983Z,86.04
2023-02-14T12:30:39.650Z,86.50
2023-02-14T12:33:22.995Z,86.23
2023-02-14T12:36:09.425Z,86.57
2023-02-14T12:39:08.641Z,86.66
2023-02-14T12:41:52.796Z,87.61
2023-02-14T12:44:57.705Z,87.67
2023-02-14T12:47:54.873Z,87.08
2023-02-14T12:50:30.447Z,87.38
2023-02-14T12:53:14.212Z,88.04
2023-02-14T12:55:52.886Z,87.75
2023-02-14T12:58:39.359Z,86.96
2023-02-14T13:01:28.421Z,86.36
2023-02-14T13:04:27.207Z,87.27
2023-02-14T13:07:28.136Z,86.83
2023-02-14T13:10:03.290Z,87.15
2023-02-14T13:13:02.503Z,86.55
2023-02-14T13:16:07.882Z,86.22
2023-02-14T13:18:59.638Z,86.76
2023-02-14T13:21:31.901Z,87.48
2023-02-14T13:24:15.668Z,87.52
2023-02-14T13:26:49.002Z,87.46
2023-02-14T13:29:26.502Z,87.72
2023-02-14T13:32:01.779Z,87.57
2023-02-14T13:34:42.001Z,87.35
2023-02-14T13:37:14.755Z,87.48
2023-02-14T13:40:04.124Z,87.98
2023-02-14T13:42:47.660Z,88.26
2023-02-14T13:45:34.930Z,87.10
2023-02-14T13:48:16.010Z,86.71
2023-02-14T13:50:56.373Z,87.38
2023-02-14T13:53:47.945Z,86.43
2023-02-14T13:56:17.636Z,86.07
2023-02-14T13:58:54.274Z,86.49
2023-02-14T14:01:42.104Z,86.32
2023-02-14T14:04:30.490Z,85.92
2023-02-14T14:07:00.212Z,85.62
2023-02-14T14:09:54.744Z,85.92
2023-02-14T14:12:43.128Z,86.83
2023-02-14T14:15:15.250Z,87.62
2023-02-14T14:17:47.299Z,88.23
2023-02-14T14:20:20.915Z,88.66
2023-02-14T14:22:50.586Z,88.96
2023-02-14T14:25:39.886Z,89.18
2023-02-14T14:28:21.261Z,88.94
2023-02-14T14:30:49.045Z,89.33
2023-02-14T14:33:28.679Z,89.21
2023-02-14T14:36:10.669Z,89.19
2023-02-14T14:38:50.816Z,89.40
2023-02-14T14:41:18.988Z,89.46
2023-02-14T14:43:47.593Z,89.42
2023-02-14T14:46:16.353Z,89.38
2023-02-14T14:48:50.187Z,89.87
2023-02-14T14:51:30.577Z,90.19
2023-02-14T14:54:07.754Z,90.15
2023-02-14T14:56:45.289Z,90.67
2023-02-14T14:59:28.031Z,91.04
2023-02-14T15:01:56.345Z,90.93
2023-02-14T15:04:35.461Z,91.16
2023-02-14T15:07:31.248Z,91.06
2023-02-14T15:09:58.790Z,91.19
2023-02-14T15:12:45.787Z,91.65
2023-02-14T15:15:16.879Z,91.95
2023-02-14T15:17:44.404Z,91.90
2023-02-14T15:20:19.006Z,92.48
2023-02-14T15:22:49.790Z,92.67
2023-02-14T15:25:29.268Z,92.78
2023-02-14T15:27:57.270Z,92.70
2023-02-14T15:30:38.697Z,92.52
2023-02-14T15:33:09.947Z,92.56
2023-02-14T15:35:42.501Z,93.06
2023-02-14T15:38:12.860Z,92.50
2023-02-14T15:40:42.893Z,92.88
2023-02-14T15:43:16.959Z,93.04
2023-02-14T15:45:51.983Z,92.58
2023-02-14T15:48:28.358Z,92.96
2023-02-14T15:50:59.181Z,92.76
2023-02-14T15:53:50.474Z,92.59
2023-02-14T15:56:25.178Z,93.17
2023-02-14T15:59:20.717Z,93.21
2023-02-14T16:02:24.406Z,92.83
2023-02-14T16:04:52.067Z,92.82
2023-02-14T16:07:29.752Z,93.08
2023-02-14T16:10:24.212Z,92.83
2023-02-14T16:13:09.291Z,92.93
2023-02-14T16:15:38.851Z,92.99
2023-02-14T16:18:18.899Z,93.04
2023-02-14T16:20:51.446Z,93.67
2023-02-14T16:23:25.966Z,93.31
2023-02-14T16:25:54.417Z,93.24
2023-02-14T16:28:22.358Z,92.91
2023-02-14T16:30:55.710Z,92.83
2023-02-14T16:33:29.097Z,93.19
2023-02-14T16:36:22.261Z,93.49
2023-02-14T16:38:50.763Z,93.44
2023-02-14T16:41:21.482Z,93.40
2023-02-14T16:43:49.130Z,93.51
2023-02-14T16:46:22.252Z,93.89
2023-02-14T16:48:53.105Z,93.55
2023-02-14T16:51:23.667Z,93.69
2023-02-14T16:53:51.233Z,94.00
2023-02-14T16:56:44.569Z,93.56
2023-02-14T16:59:13.010Z,93.76
2023-02-14T17:01:41.476Z,94.16
2023-02-14T17:04:09.645Z,94.36
2023-02-14T17:06:41.916Z,94.25
2023-02-14T17:09:11.652Z,94.61
2023-02-14T17:11:47.108Z,94.46
2023-02-14T17:14:21.065Z,94.46
2023-02-14T17:16:52.843Z,94.63
2023-02-14T17:19:20.548Z,94.50
2023-02-14T17:21:50.280Z,94.92
2023-02-14T17:24:19.660Z,94.96
2023-02-14T17:26:49.570Z,95.25
2023-02-14T17:29:17.966Z,94.98
2023-02-14T17:31:46.328Z,94.98
2023-02-14T17:34:13.878Z,95.12
2023-02-14T17:36:41.763Z,95.17
2023-02-14T17:39:09.545Z,95.64
2023-02-14T17:41:38.104Z,95.58
2023-02-14T17:44:08.229Z,95.77
2023-02-14T17:46:35.890Z,95.70
2023-02-14T17:49:04.151Z,95.72
2023-02-14T17:51:31.753Z,96.40
2023-02-14T17:54:01.300Z,96.21
2023-02-14T17:56:29.434Z,96.89
2023-02-14T17:58:56.725Z,96.62
2023-02-14T18:01:27.240Z,96.23
2023-02-14T18:03:56.294Z,95.97
2023-02-14T18:06:27.008Z,95.94
2023-02-14T18:08:58.357Z,96.08
2023-02-14T18:11:28.275Z,96.37
2023-02-14T18:13:57.199Z,96.84
2023-02-14T18:16:26.292Z,97.21
2023-02-14T18:18:55.142Z,97.64
2023-02-14T18:21:24.717Z,97.57
2023-02-14T18:23:53.069Z,97.53
2023-02-14T18:26:20.863Z,97.71
2023-02-14T18:28:48.996Z,97.81
2023-02-14T18:31:19.040Z,98.03
2023-02-14T18:33:48.354Z,98.42
2023-02-14T18:36:19.258Z,98.41
2023-02-14T18:38:49.258Z,98.39
2023-02-14T18:41:19.744Z,98.35
2023-02-14T18:43:49.311Z,98.62
2023-02-14T18:46:23.652Z,99.06
2023-02-14T18:48:51.628Z,99.10
2023-02-14T18:51:25.992Z,99.27
2023-02-14T18:53:54.922Z,99.63
2023-02-14T18:56:27.225Z,99.26
2023-02-14T18:59:01.426Z,99.80
2023-02-14T19:01:33.011Z,99.98
2023-02-14T19:04:01.851Z,99.74
2023-02-14T19:06:32.119Z,100.00
2023-02-14T19:09:03.124Z,100.00
2023-02-14T19:11:33.389Z,100.00
2023-02-14T19:14:02.429Z,100.00
2023-02-14T19:16:34.053Z,100.00
2023-02-14T19:19:02.910Z,100.00
2023-02-14T19:21:37.714Z,100.00
2023-02-14T19:24:07.492Z,100.00
2023-02-14T19:26:40.912Z,100.00
2023-02-14T19:29:12.342Z,100.00
2023-02-14T19:31:44.603Z,100.00
2023-02-14T19:34:19.885Z,100.00
2023-02-14T19:36:49.077Z,100.00
2023-02-14T19:39:17.417Z,100.00
2023-02-14T19:41:46.303Z,100.00
2023-02-14T19:44:15.716Z,100.00
2023-02-14T19:46:45.296Z,100.00
2023-02-14T19:49:15.027Z,100.00
2023-02-14T19:51:43.935Z,100.00
2023-02-14T19:54:12.648Z,100.00
2023-02-14T19:56:44.756Z,100.00
2023-02-14T19:59:20.223Z,100.00
2023-02-14T20:01:51.835Z,100.00
2023-02-14T20:04:29.291Z,100.00
2023-02-14T20:06:57.533Z,100.00
2023-02-14T20:09:25.713Z,100.00
2023-02-14T20:11:58.476Z,100.00
2023-02-14T20:14:43.656Z,100.00
2023-02-14T20:17:18.110Z,100.00
2023-02-14T20:19:45.325Z,100.00
2023-02-14T20:22:12.733Z,100.00
2023-02-14T20:24:40.024Z,100.00
2023-02-14T20:27:08.270Z,100.00
2023-02-14T20:29:38.943Z,100.00
2023-02-14T20:32:07.537Z,100.00
2023-02-14T20:34:34.541Z,100.00
2023-02-14T20:37:02.732Z,100.00
2023-02-14T20:39:34.640Z,100.00
2023-02-14T20:42:02.038Z,100.00
2023-02-14T20:44:29.970Z,100.00
2023-02-14T20:46:57.687Z,100.00
2023-02-14T20:49:26.344Z,100.00
2023-02-14T20:51:53.994Z,100.00
2023-02-14T20:54:24.090Z,100.00
2023-02-14T20:56:52.910Z,100.00
2023-02-14T20:59:27.527Z,100.00
2023-02-14T21:01:56.349Z,100.00
2023-02-14T21:04:23.729Z,100.00
2023-02-14T21:06:51.408Z,100.00
2023-02-14T21:09:20.891Z,100.00
2023-02-14T21:11:48.558Z,100.00
2023-02-14T21:14:17.451Z,100.00
2023-02-14T21:16:45.133Z,100.00
2023-02-14T21:19:13.306Z,100.00
2023-02-14T21:21:42.044Z,100.00
2023-02-14T21:24:12.453Z,100.00
2023-02-14T21:26:42.115Z,100.00
2023-02-14T21:29:10.769Z,100.00
2023-02-14T21:31:40.104Z,100.00
2023-02-14T21:34:07.570Z,100.00
2023-02-14T21:36:36.827Z,100.00
2023-02-14T21:39:06.541Z,100.00
2023-02-14T21:41:35.257Z,100.00
2023-02-14T21:44:04.535Z,100.00
2023-02-14T21:46:37.185Z,100.00
2023-02-14T21:49:24.857Z,100.00
2023-02-14T21:51:53.367Z,100.00
2023-02-14T21:54:21.459Z,100.00
2023-02-14T21:56:49.965Z,100.00
2023-02-14T21:59:17.765Z,100.00
2023-02-14T22:01:45.394Z,100.00
2023-02-14T22:04:13.165Z,100.00
2023-02-14T22:06:42.917Z,100.00
2023-02-14T22:09:13.406Z,100.00
2023-02-14T22:11:40.983Z,100.00
2023-02-14T22:14:08.401Z,100.00
2023-02-14T22:16:39.913Z,100.00
2023-02-14T22:19:08.929Z,100.00
2023-02-14T22:21:36.589Z,100.00
2023-02-14T22:24:05.300Z,100.00
2023-02-14T22:26:40.842Z,100.00
2023-02-14T22:29:11.960Z,100.00
2023-02-14T22:31:42.908Z,100.00
2023-02-14T22:34:13.748Z,100.00
2023-02-14T22:36:42.670Z,100.00
2023-02-14T22:39:13.349Z,100.00
2023-02-14T22:41:43.171Z,100.00
2023-02-14T22:44:10.537Z,99.89
2023-02-14T22:46:38.551Z,100.00
2023-02-14T22:49:07.012Z,100.00
2023-02-14T22:51:41.189Z,100.00
2023-02-14T22:54:14.146Z,99.59
2023-02-14T22:56:45.620Z,99.71
2023-02-14T22:59:16.861Z,99.58
2023-02-14T23:01:44.894Z,99.40
2023-02-14T23:04:13.468Z,100.00
2023-02-14T23:06:42.059Z,99.81
2023-02-14T23:09:11.806Z,99.79
2023-02-14T23:11:43.329Z,100.00
2023-02-14T23:14:53.795Z,100.00
2023-02-14T23:17:39.887Z,99.78
2023-02-14T23:20:27.355Z,99.89
2023-02-14T23:22:55.644Z,99.85
2023-02-14T23:25:23.453Z,99.81
2023-02-14T23:27:51.958Z,100.00
2023-02-14T23:30:19.924Z,100.00
2023-02-14T23:32:48.578Z,99.90
2023-02-14T23:35:16.270Z,99.48
2023-02-14T23:37:44.029Z,99.22
2023-02-14T23:40:12.002Z,99.77
2023-02-14T23:42:40.017Z,99.74
2023-02-14T23:45:26.817Z,99.61
2023-02-14T23:47:54.554Z,99.22
2023-02-14T23:50:22.910Z,99.52
2023-02-14T23:52:50.636Z,99.52
2023-02-14T23:55:18.344Z,99.03
2023-02-14T23:57:46.263Z,98.76
